createdAt,value
2022-12-22T01:59:17.635Z,5.80
2022-12-22T02:01:49.916Z,5.88
2022-12-22T02:04:16.905Z,6.68
2022-12-22T02:06:47.751Z,6.45
2022-12-22T02:09:25.684Z,6.90
2022-12-22T02:11:59.236Z,5.57
2022-12-22T02:14:46.743Z,6.10
2022-12-22T02:17:15.434Z,6.30
2022-12-22T02:19:45.242Z,5.68
2022-12-22T02:22:12.003Z,5.97
2022-12-22T02:25:04.242Z,5.90
2022-12-22T02:30:35.409Z,5.95
2022-12-22T02:33:08.893Z,6.53
2022-12-22T02:35:31.170Z,6.63
2022-12-22T02:37:58.808Z,6.55
2022-12-22T02:43:13.204Z,5.05
2022-12-22T02:48:37.046Z,6.60
2022-12-22T02:51:10.766Z,6.40
2022-12-22T02:53:47.259Z,6.10
2022-12-22T02:56:20.011Z,6.85
2022-12-22T02:59:17.612Z,6.85
2022-12-22T03:01:49.440Z,6.13
2022-12-22T03:04:17.429Z,5.10
2022-12-22T03:07:04.964Z,5.30
2022-12-22T03:09:38.149Z,4.82
2022-12-22T03:11:59.752Z,4.88
2022-12-22T05:33:29.960Z,2.70
2022-12-22T05:35:38.859Z,2.85
2022-12-22T05:37:49.894Z,2.75
2022-12-22T05:40:33.809Z,2.80
2022-12-22T05:43:10.674Z,2.85
2022-12-22T05:55:00.144Z,3.00
2022-12-22T05:57:44.642Z,3.17
2022-12-22T06:00:22.807Z,3.03
2022-12-22T06:02:31.074Z,3.17
2022-12-22T06:04:41.425Z,3.50
2022-12-22T06:06:50.082Z,3.03
2022-12-22T06:09:04.299Z,3.60
2022-12-22T06:11:20.665Z,2.53
2022-12-22T06:13:37.561Z,2.30
2022-12-22T06:16:04.064Z,2.53
2022-12-22T06:18:26.345Z,2.28
2022-12-22T06:21:08.656Z,2.63
2022-12-22T06:26:19.382Z,2.00
2022-12-22T06:28:58.607Z,1.98
2022-12-22T06:31:07.747Z,1.70
2022-12-22T06:33:14.319Z,1.90
2022-12-22T06:35:21.176Z,1.98
2022-12-22T06:37:25.570Z,2.30
2022-12-22T06:39:30.111Z,1.42
2022-12-22T06:41:59.876Z,1.65
2022-12-22T06:44:07.515Z,1.50
2022-12-22T06:46:43.879Z,1.60
2022-12-22T06:49:32.397Z,1.58
2022-12-22T07:15:20.660Z,1.63
2022-12-22T07:17:24.789Z,1.35
2022-12-22T07:19:31.748Z,1.17
2022-12-22T07:21:41.098Z,1.20
2022-12-22T07:26:33.587Z,1.48
2022-12-22T07:28:41.607Z,1.23
2022-12-22T07:37:43.373Z,1.50
2022-12-22T07:39:50.204Z,1.20
2022-12-22T07:42:12.462Z,1.30
2022-12-22T08:36:30.936Z,1.30
2022-12-22T08:38:34.571Z,1.33
2022-12-22T08:40:39.964Z,1.30
2022-12-22T08:42:44.275Z,1.20
2022-12-22T08:44:58.985Z,1.40
2022-12-22T08:50:42.564Z,1.27
2022-12-22T08:56:06.076Z,1.00
2022-12-22T08:58:53.467Z,1.27
2022-12-22T09:01:03.072Z,1.15
2022-12-22T09:03:22.794Z,1.27
2022-12-22T09:05:34.170Z,1.50
2022-12-22T09:07:55.538Z,1.48
2022-12-22T09:09:59.457Z,1.38
2022-12-22T09:12:07.552Z,1.40
2022-12-22T09:14:15.716Z,1.77
2022-12-22T09:19:19.853Z,2.00
2022-12-22T09:21:35.763Z,1.95
2022-12-22T09:23:46.125Z,1.80
2022-12-22T09:26:01.860Z,2.45
2022-12-22T09:28:35.560Z,2.00
2022-12-22T09:31:41.308Z,1.88
2022-12-22T09:34:17.098Z,1.98
2022-12-22T09:36:42.594Z,2.40
2022-12-22T09:39:26.771Z,1.77
2022-12-22T09:42:27.719Z,1.88
2022-12-22T09:45:02.051Z,1.92
2022-12-22T09:47:20.882Z,1.80
2022-12-22T09:52:51.522Z,2.05
2022-12-22T09:55:32.806Z,1.80
2022-12-22T09:57:54.875Z,2.58
2022-12-22T21:00:11.554Z,10.25
2022-12-22T21:02:37.267Z,10.27
2022-12-22T21:04:46.359Z,9.80
2022-12-22T21:06:55.320Z,9.55
2022-12-22T21:09:03.569Z,9.10
2022-12-22T21:11:18.273Z,9.32
2022-12-22T21:13:27.131Z,9.25
2022-12-22T21:15:44.252Z,9.40
2022-12-22T21:17:55.957Z,9.65
2022-12-22T21:20:05.877Z,10.23
2022-12-22T21:22:12.962Z,9.02
2022-12-22T21:24:19.102Z,9.30
2022-12-22T21:26:35.588Z,10.02
2022-12-22T21:28:44.492Z,10.80
2022-12-22T21:31:07.579Z,10.82
2022-12-22T21:33:14.056Z,10.60
2022-12-22T21:35:22.033Z,9.13
2022-12-22T21:37:52.489Z,9.60
2022-12-22T21:40:01.634Z,10.27
2022-12-22T21:42:07.889Z,10.00
2022-12-22T21:44:26.702Z,9.95
2022-12-22T21:46:55.398Z,10.43
2022-12-22T21:51:39.752Z,8.37
2022-12-22T21:53:54.555Z,9.27
2022-12-22T21:56:22.746Z,7.60
2022-12-22T21:58:31.497Z,7.18
2022-12-22T22:00:49.351Z,8.68
2022-12-22T22:02:56.542Z,7.40
2022-12-22T22:05:03.278Z,7.35
2022-12-22T22:07:46.872Z,7.53
2022-12-22T22:10:01.072Z,7.32
2022-12-22T22:12:28.369Z,6.85
2022-12-22T22:14:32.426Z,5.20
2022-12-22T22:26:27.835Z,5.30
2022-12-22T22:29:38.173Z,6.28
2022-12-22T22:31:55.885Z,6.00
2022-12-22T22:34:23.151Z,6.17
2022-12-22T22:37:09.424Z,6.18
2022-12-22T22:42:40.947Z,5.82
2022-12-22T22:45:27.643Z,5.53
2022-12-22T22:48:10.488Z,5.30
2022-12-22T22:50:30.289Z,5.97
2022-12-22T22:52:45.053Z,6.00
2022-12-22T22:55:04.725Z,5.68
2022-12-22T22:57:27.924Z,5.90
2022-12-22T22:59:39.229Z,5.88
2022-12-22T23:01:44.393Z,5.95
2022-12-22T23:03:50.755Z,5.93
2022-12-22T23:05:59.675Z,6.22
2022-12-22T23:08:07.303Z,5.78
2022-12-22T23:10:15.278Z,6.03
2022-12-22T23:12:46.045Z,6.30
2022-12-22T23:14:50.126Z,5.75
2022-12-22T23:16:56.732Z,6.03
2022-12-22T23:19:26.768Z,6.40
2022-12-22T23:21:33.019Z,6.95
2022-12-22T23:24:05.830Z,6.13
2022-12-22T23:26:41.295Z,5.82
2022-12-22T23:29:08.634Z,7.85
2022-12-22T23:31:16.681Z,6.05
2022-12-22T23:33:31.362Z,5.63
2022-12-22T23:35:50.454Z,5.90
2022-12-22T23:37:58.939Z,6.78
2022-12-22T23:40:50.389Z,7.10
2022-12-22T23:42:42.917Z,5.43
2022-12-22T23:44:50.016Z,6.43
